Time;durP1;ratioP1;P1;durP2;ratioP2;P2;SDS_P1;SDS_P2;PMS_P1;PMS_P2;Temp;Humidity;BMP_temperature;BMP_pressure;BME280_temperature;BME280_humidity;BME280_pressure;Samples;Min_cycle;Max_cycle;Signal;HPM_P1;HPM_P2
2022/04/30 00:00:41;;;;;;;37.50;18.70;;;10.10;99.90;;;;;;5022024;28;20899;-75
2022/04/30 00:03:09;;;;;;;33.90;17.93;;;10.10;99.90;;;;;;5024139;28;20473;-74
2022/04/30 00:05:37;;;;;;;42.37;17.70;;;10.00;99.90;;;;;;5020372;28;20461;-75
2022/04/30 00:08:05;;;;;;;32.33;17.90;;;10.00;99.90;;;;;;5026225;28;20877;-75
2022/04/30 00:10:37;;;;;;;33.80;19.50;;;10.00;99.90;;;;;;5031191;28;20485;-75
2022/04/30 00:13:04;;;;;;;36.37;18.27;;;9.90;99.90;;;;;;5031390;28;20469;-75
2022/04/30 00:15:31;;;;;;;35.30;18.97;;;9.90;99.90;;;;;;5033204;28;20449;-75
2022/04/30 00:17:57;;;;;;;36.33;20.00;;;9.90;99.90;;;;;;5036082;28;20453;-74
2022/04/30 00:20:24;;;;;;;32.30;17.10;;;9.90;99.90;;;;;;5032893;28;20523;-75
2022/04/30 00:22:52;;;;;;;44.57;19.77;;;9.80;99.90;;;;;;5025851;28;20461;-74
2022/04/30 00:25:19;;;;;;;36.80;18.33;;;9.80;99.90;;;;;;5029046;28;20457;-75
2022/04/30 00:27:45;;;;;;;35.37;19.77;;;9.80;99.90;;;;;;5030059;28;20488;-74
2022/04/30 00:30:13;;;;;;;42.77;19.50;;;9.80;99.90;;;;;;5027357;28;21086;-75
2022/04/30 00:32:39;;;;;;;35.60;18.87;;;9.70;99.90;;;;;;5017412;28;20457;-75
2022/04/30 00:35:07;;;;;;;37.50;20.40;;;9.70;99.90;;;;;;5022752;28;20457;-75
2022/04/30 00:37:34;;;;;;;34.70;19.23;;;9.60;99.90;;;;;;5031556;28;20458;-75
2022/04/30 00:40:02;;;;;;;34.43;19.40;;;9.70;99.90;;;;;;5028566;28;20873;-75
2022/04/30 00:42:29;;;;;;;38.43;19.53;;;9.70;99.90;;;;;;5019512;28;20442;-75
2022/04/30 00:44:55;;;;;;;36.40;19.83;;;9.70;99.90;;;;;;5023019;28;20454;-75
2022/04/30 00:47:22;;;;;;;35.67;18.70;;;9.60;99.90;;;;;;5032042;28;20504;-75
2022/04/30 00:49:49;;;;;;;39.87;21.57;;;9.60;99.90;;;;;;5016475;28;20485;-75
2022/04/30 00:52:17;;;;;;;38.77;21.00;;;9.50;99.90;;;;;;5032155;28;20449;-75
2022/04/30 00:54:49;;;;;;;41.17;21.30;;;9.50;99.90;;;;;;5025338;28;20457;-75
2022/04/30 00:57:23;;;;;;;34.50;21.57;;;9.40;99.90;;;;;;5032813;28;20456;-75
2022/04/30 00:59:58;;;;;;;41.63;22.50;;;9.40;99.90;;;;;;5016202;28;20478;-75
2022/04/30 01:02:28;;;;;;;49.53;22.00;;;9.40;99.90;;;;;;5021523;28;20458;-75
2022/04/30 01:04:56;;;;;;;39.20;21.60;;;9.30;99.90;;;;;;5015638;28;20454;-75
2022/04/30 01:07:23;;;;;;;45.90;22.63;;;9.30;99.90;;;;;;5030963;28;20454;-75
2022/04/30 01:09:53;;;;;;;32.57;20.67;;;9.30;99.90;;;;;;5029358;28;20524;-75
2022/04/30 01:12:22;;;;;;;44.87;21.20;;;9.30;99.90;;;;;;5023754;28;20466;-74
2022/04/30 01:14:51;;;;;;;42.50;22.47;;;9.30;99.90;;;;;;5031538;28;20945;-75
2022/04/30 01:17:18;;;;;;;36.97;21.27;;;9.30;99.90;;;;;;5022618;28;20508;-75
2022/04/30 01:19:47;;;;;;;39.33;21.87;;;9.30;99.90;;;;;;5025787;28;20464;-75
2022/04/30 01:22:21;;;;;;;38.17;22.37;;;9.30;99.90;;;;;;5021884;28;21129;-75
2022/04/30 01:24:49;;;;;;;43.77;22.37;;;9.20;99.90;;;;;;5015189;28;20458;-74
2022/04/30 01:27:17;;;;;;;39.70;21.80;;;9.20;99.90;;;;;;5023042;28;21158;-75
2022/04/30 01:29:44;;;;;;;40.87;22.70;;;9.20;99.90;;;;;;5021995;28;20475;-75
2022/04/30 01:37:39;;;;;;;48.50;22.63;;;9.30;99.90;;;;;;5023171;28;21000;-75
2022/04/30 01:40:09;;;;;;;35.67;20.57;;;9.30;99.90;;;;;;5032332;28;20491;-75
2022/04/30 01:42:38;;;;;;;36.93;21.97;;;9.30;99.90;;;;;;5021761;28;20537;-75
2022/04/30 01:45:06;;;;;;;36.30;21.07;;;9.30;99.90;;;;;;5016047;28;20950;-75
2022/04/30 01:47:36;;;;;;;40.50;22.60;;;9.30;99.90;;;;;;5014841;28;21043;-75
2022/04/30 01:50:03;;;;;;;41.80;22.77;;;9.30;99.90;;;;;;5034662;28;20484;-75
2022/04/30 01:52:30;;;;;;;37.60;22.50;;;9.30;99.90;;;;;;5024390;28;20458;-75
2022/04/30 01:54:58;;;;;;;34.50;20.60;;;9.30;99.90;;;;;;5018874;28;20458;-75
2022/04/30 01:57:26;;;;;;;39.47;21.30;;;9.30;99.90;;;;;;5027788;28;20553;-75
2022/04/30 01:59:53;;;;;;;36.13;21.17;;;9.30;99.90;;;;;;5015410;28;20573;-75
2022/04/30 02:02:22;;;;;;;36.87;21.03;;;9.30;99.90;;;;;;5015252;28;20449;-75
2022/04/30 02:04:50;;;;;;;36.40;22.10;;;9.20;99.90;;;;;;5021610;28;20493;-75
2022/04/30 02:07:18;;;;;;;39.73;22.80;;;9.20;99.90;;;;;;5023682;28;20452;-75
2022/04/30 02:09:44;;;;;;;37.30;22.30;;;9.20;99.90;;;;;;5017029;28;20875;-75
2022/04/30 02:12:11;;;;;;;35.53;22.50;;;9.20;99.90;;;;;;5023028;28;20499;-75
2022/04/30 02:14:44;;;;;;;36.93;21.40;;;9.20;99.90;;;;;;5014305;28;20458;-75
2022/04/30 02:17:13;;;;;;;36.07;21.30;;;9.20;99.90;;;;;;5016981;28;20836;-75
2022/04/30 02:22:27;;;;;;;35.13;21.13;;;9.30;99.90;;;;;;5019943;28;20524;-75
2022/04/30 02:24:54;;;;;;;38.63;22.87;;;9.30;99.90;;;;;;5013564;28;20458;-75
2022/04/30 02:27:22;;;;;;;40.50;22.50;;;9.30;99.90;;;;;;5024868;28;20640;-75
2022/04/30 02:29:50;;;;;;;40.17;23.90;;;9.30;99.90;;;;;;5029542;28;20480;-75
2022/04/30 02:32:17;;;;;;;35.93;22.73;;;9.30;99.90;;;;;;5016552;28;20451;-75
2022/04/30 02:34:44;;;;;;;36.90;22.97;;;9.30;99.90;;;;;;5015160;28;20458;-75
2022/04/30 02:37:14;;;;;;;35.13;21.00;;;9.30;99.90;;;;;;5032737;28;20592;-75
2022/04/30 02:39:42;;;;;;;37.77;22.73;;;9.20;99.90;;;;;;5013681;28;20465;-75
2022/04/30 02:42:10;;;;;;;33.20;21.67;;;9.20;99.90;;;;;;5015744;28;20452;-75
2022/04/30 02:44:37;;;;;;;35.53;21.77;;;9.20;99.90;;;;;;5014005;28;20489;-75
2022/04/30 02:47:07;;;;;;;38.87;22.80;;;9.20;99.90;;;;;;5033377;28;20511;-75
2022/04/30 02:49:34;;;;;;;40.80;24.13;;;9.10;99.90;;;;;;5018349;28;20462;-75
2022/04/30 02:52:01;;;;;;;38.33;23.80;;;9.10;99.90;;;;;;5021494;28;20520;-75
2022/04/30 02:54:29;;;;;;;39.20;22.10;;;9.10;99.90;;;;;;5020976;28;20503;-75
2022/04/30 02:56:55;;;;;;;37.67;23.43;;;9.00;99.90;;;;;;5026403;28;20512;-75
2022/04/30 03:02:07;;;;;;;35.77;23.43;;;9.00;99.90;;;;;;5014968;28;20441;-75
2022/04/30 03:04:34;;;;;;;40.63;23.47;;;9.00;99.90;;;;;;5020774;28;20462;-75
2022/04/30 03:07:00;;;;;;;39.33;23.43;;;9.00;99.90;;;;;;5023037;28;20459;-75
2022/04/30 03:09:27;;;;;;;43.33;25.03;;;9.00;99.90;;;;;;5027537;28;20874;-75
2022/04/30 03:11:54;;;;;;;39.83;23.00;;;9.00;99.90;;;;;;5020128;28;20545;-75
2022/04/30 03:14:21;;;;;;;40.23;24.53;;;9.00;99.90;;;;;;5017191;28;20487;-75
2022/04/30 03:22:17;;;;;;;42.50;24.37;;;8.90;99.90;;;;;;5021592;28;20486;-75
2022/04/30 03:24:44;;;;;;;40.07;23.77;;;8.90;99.90;;;;;;5017643;28;20887;-75
2022/04/30 03:27:11;;;;;;;40.13;23.57;;;8.90;99.90;;;;;;5016175;28;20508;-75
2022/04/30 03:29:37;;;;;;;42.17;24.93;;;8.90;99.90;;;;;;5024493;28;20464;-75
2022/04/30 03:32:06;;;;;;;44.37;26.40;;;8.90;99.90;;;;;;5028235;28;20493;-75
2022/04/30 03:34:34;;;;;;;39.13;24.50;;;8.90;99.90;;;;;;5019312;28;20453;-75
2022/04/30 03:37:00;;;;;;;44.70;23.97;;;8.90;99.90;;;;;;5026496;28;20457;-75
2022/04/30 03:39:27;;;;;;;39.80;25.13;;;8.90;99.90;;;;;;5019396;28;21004;-75
2022/04/30 03:41:54;;;;;;;37.50;23.90;;;8.90;99.90;;;;;;5015237;28;20454;-75
2022/04/30 03:44:21;;;;;;;37.17;23.93;;;8.90;99.90;;;;;;5013549;28;20508;-75
2022/04/30 03:46:48;;;;;;;40.97;24.50;;;8.90;99.90;;;;;;5023171;28;20462;-75
2022/04/30 03:49:14;;;;;;;34.80;22.23;;;8.90;99.90;;;;;;5025337;28;20452;-75
2022/04/30 03:51:42;;;;;;;42.83;24.27;;;8.90;99.90;;;;;;5022463;28;20478;-75
2022/04/30 03:54:09;;;;;;;37.40;23.20;;;8.90;99.90;;;;;;5019937;28;20458;-75
2022/04/30 03:56:36;;;;;;;41.37;24.37;;;8.90;99.90;;;;;;5017346;28;20453;-75
2022/04/30 03:59:03;;;;;;;37.80;22.90;;;8.90;99.90;;;;;;5025048;28;20457;-75
2022/04/30 04:01:30;;;;;;;35.13;22.60;;;8.90;99.90;;;;;;5030366;28;20469;-75
2022/04/30 04:04:00;;;;;;;37.70;22.80;;;8.90;99.90;;;;;;5023269;28;20477;-75
2022/04/30 04:06:27;;;;;;;39.47;23.77;;;8.90;99.90;;;;;;5019070;28;20457;-75
2022/04/30 04:08:55;;;;;;;34.10;21.07;;;8.90;99.90;;;;;;5014221;28;20462;-75
2022/04/30 04:11:23;;;;;;;38.30;22.13;;;8.90;99.90;;;;;;5021202;28;20489;-75
2022/04/30 04:19:20;;;;;;;35.77;22.87;;;9.00;99.90;;;;;;5021043;28;20453;-75
2022/04/30 04:21:46;;;;;;;35.13;21.77;;;8.90;99.90;;;;;;5021101;28;20474;-75
2022/04/30 04:27:01;;;;;;;30.73;20.07;;;8.90;99.90;;;;;;5012477;28;20474;-75
2022/04/30 04:29:27;;;;;;;32.93;21.37;;;9.00;99.90;;;;;;5017086;28;20505;-75
2022/04/30 04:31:54;;;;;;;41.80;23.30;;;8.90;99.90;;;;;;5017040;28;20482;-75
2022/04/30 04:34:21;;;;;;;39.70;21.43;;;8.90;99.90;;;;;;5019458;28;20462;-75
2022/04/30 04:36:48;;;;;;;34.30;20.77;;;8.80;99.90;;;;;;5015835;28;20446;-75
2022/04/30 04:39:16;;;;;;;41.60;20.93;;;8.80;99.90;;;;;;5017891;28;20454;-75
2022/04/30 04:41:43;;;;;;;33.93;20.73;;;8.80;99.90;;;;;;5017598;28;20982;-75
2022/04/30 04:44:10;;;;;;;36.77;19.37;;;8.70;99.90;;;;;;5012886;28;20475;-75
2022/04/30 04:46:39;;;;;;;31.00;19.13;;;8.70;99.90;;;;;;5023260;28;20508;-75
2022/04/30 04:49:06;;;;;;;31.13;18.40;;;8.60;99.90;;;;;;5013954;28;20454;-77
2022/04/30 04:51:34;;;;;;;30.43;17.67;;;8.50;99.90;;;;;;5024221;28;20523;-75
2022/04/30 04:54:01;;;;;;;30.13;18.43;;;8.50;99.90;;;;;;5024254;28;20881;-75
2022/04/30 04:56:30;;;;;;;31.30;18.07;;;8.50;99.90;;;;;;5028501;28;20453;-76
2022/04/30 04:58:57;;;;;;;33.10;19.70;;;8.50;99.90;;;;;;5024315;28;20461;-76
2022/04/30 05:01:23;;;;;;;32.67;18.70;;;8.50;99.90;;;;;;5028792;28;20985;-76
2022/04/30 05:03:50;;;;;;;37.73;19.10;;;8.50;99.90;;;;;;5019517;28;20962;-75
2022/04/30 05:06:17;;;;;;;24.60;16.73;;;8.50;99.90;;;;;;5029060;28;20508;-76
2022/04/30 05:08:44;;;;;;;26.87;16.40;;;8.50;99.90;;;;;;5022614;28;20462;-76
2022/04/30 05:11:10;;;;;;;28.60;16.90;;;8.50;99.90;;;;;;5020308;28;20482;-75
2022/04/30 05:13:38;;;;;;;27.10;16.87;;;8.50;99.90;;;;;;5024213;28;20458;-75
2022/04/30 05:16:06;;;;;;;33.50;17.73;;;8.50;99.90;;;;;;5025466;28;20853;-75
2022/04/30 05:18:32;;;;;;;27.50;17.17;;;8.50;99.90;;;;;;5021918;28;20450;-76
2022/04/30 05:20:59;;;;;;;27.53;16.27;;;8.40;99.90;;;;;;5030866;28;20469;-74
2022/04/30 05:23:26;;;;;;;28.60;17.23;;;8.50;99.90;;;;;;5029442;28;20453;-75
2022/04/30 05:25:54;;;;;;;26.87;17.50;;;8.40;99.90;;;;;;5016217;28;21236;-75
2022/04/30 05:28:20;;;;;;;31.53;17.00;;;8.40;99.90;;;;;;5021197;28;20457;-74
2022/04/30 05:30:48;;;;;;;37.20;17.30;;;8.40;99.90;;;;;;5022457;28;20473;-74
2022/04/30 05:33:15;;;;;;;30.33;17.50;;;8.40;99.90;;;;;;5022548;28;20450;-74
2022/04/30 05:35:42;;;;;;;25.60;15.80;;;8.40;99.90;;;;;;5019875;28;21028;-74
2022/04/30 05:38:08;;;;;;;26.20;17.47;;;8.40;99.90;;;;;;5014332;28;20882;-74
2022/04/30 05:40:35;;;;;;;22.50;15.30;;;8.40;99.90;;;;;;5025937;28;21164;-74
2022/04/30 05:43:02;;;;;;;32.67;17.23;;;8.40;99.90;;;;;;5014943;28;20492;-74
2022/04/30 05:45:28;;;;;;;28.50;17.63;;;8.40;99.90;;;;;;5028379;28;20516;-74
2022/04/30 05:47:56;;;;;;;25.73;16.97;;;8.40;99.90;;;;;;5021803;28;20457;-74
2022/04/30 05:50:23;;;;;;;27.47;15.77;;;8.30;99.90;;;;;;5029223;28;20524;-73
2022/04/30 05:52:50;;;;;;;31.73;18.20;;;8.30;99.90;;;;;;5022346;28;20551;-74
2022/04/30 05:55:16;;;;;;;28.93;18.03;;;8.30;99.90;;;;;;5030929;28;20827;-73
2022/04/30 05:57:43;;;;;;;30.50;17.83;;;8.30;99.90;;;;;;5026218;28;20454;-74
2022/04/30 06:00:11;;;;;;;26.27;16.10;;;8.20;99.90;;;;;;5030987;28;20473;-73
2022/04/30 06:02:37;;;;;;;27.57;16.93;;;8.20;99.90;;;;;;5019971;28;21014;-74
2022/04/30 06:05:08;;;;;;;31.03;17.77;;;8.20;99.90;;;;;;5019293;28;20489;-73
2022/04/30 06:07:35;;;;;;;31.47;18.67;;;8.20;99.90;;;;;;5021272;28;20488;-74
2022/04/30 06:10:01;;;;;;;28.77;17.47;;;8.20;99.90;;;;;;5033760;28;20483;-74
2022/04/30 06:12:29;;;;;;;33.10;17.47;;;8.20;99.90;;;;;;5022240;28;20485;-74
2022/04/30 06:14:56;;;;;;;33.53;17.47;;;8.20;99.90;;;;;;5013206;28;20950;-74
2022/04/30 06:17:22;;;;;;;26.83;16.90;;;8.10;99.90;;;;;;5028845;28;20453;-74
2022/04/30 06:19:49;;;;;;;32.33;17.30;;;8.20;99.90;;;;;;5027380;28;20504;-74
2022/04/30 06:22:17;;;;;;;27.63;17.43;;;8.20;99.90;;;;;;5026892;28;20498;-74
2022/04/30 06:24:43;;;;;;;29.80;18.33;;;8.20;99.90;;;;;;5026646;28;20452;-73
2022/04/30 06:27:11;;;;;;;29.13;17.27;;;8.20;99.90;;;;;;5035059;28;20445;-75
2022/04/30 06:29:38;;;;;;;30.93;17.50;;;8.20;99.90;;;;;;5025287;28;20900;-75
2022/04/30 06:32:06;;;;;;;28.43;16.47;;;8.20;99.90;;;;;;5032124;28;20481;-75
2022/04/30 06:34:33;;;;;;;32.07;17.70;;;8.20;99.90;;;;;;5029926;28;20926;-76
2022/04/30 06:36:59;;;;;;;24.23;15.37;;;8.20;99.90;;;;;;5026748;28;20457;-76
2022/04/30 06:39:27;;;;;;;32.03;17.03;;;8.20;99.90;;;;;;5031063;28;20519;-75
2022/04/30 06:41:54;;;;;;;26.87;16.73;;;8.30;99.90;;;;;;5025721;28;20508;-75
2022/04/30 06:44:20;;;;;;;27.67;16.63;;;8.30;99.90;;;;;;5015394;28;20507;-75
2022/04/30 06:46:47;;;;;;;27.60;16.80;;;8.30;99.90;;;;;;5021587;28;20462;-75
2022/04/30 06:49:14;;;;;;;27.47;16.87;;;8.30;99.90;;;;;;5029052;28;21031;-75
2022/04/30 06:51:40;;;;;;;24.43;15.40;;;8.30;99.90;;;;;;5015986;28;20515;-75
2022/04/30 06:57:08;;;;;;;25.13;15.70;;;8.30;99.90;;;;;;5025070;28;21047;-75
2022/04/30 06:59:37;;;;;;;25.73;16.90;;;8.30;99.90;;;;;;5028526;28;20453;-75
2022/04/30 07:02:06;;;;;;;27.90;16.50;;;8.30;99.90;;;;;;5026858;28;20541;-75
2022/04/30 07:04:33;;;;;;;24.57;15.53;;;8.40;99.90;;;;;;5021074;28;21044;-74
2022/04/30 07:07:00;;;;;;;23.53;15.20;;;8.30;99.90;;;;;;5028796;28;20550;-74
2022/04/30 07:09:28;;;;;;;27.97;15.80;;;8.30;99.90;;;;;;5022056;28;20461;-75
2022/04/30 07:11:56;;;;;;;29.03;16.73;;;8.30;99.90;;;;;;5019817;28;20521;-74
2022/04/30 07:14:22;;;;;;;25.10;15.83;;;8.30;99.90;;;;;;5025060;28;20873;-74
2022/04/30 07:16:49;;;;;;;24.20;14.60;;;8.30;99.90;;;;;;5022816;28;20466;-74
2022/04/30 07:19:16;;;;;;;24.73;15.30;;;8.30;99.90;;;;;;5033038;28;20449;-74
2022/04/30 07:21:42;;;;;;;23.90;14.40;;;8.30;99.90;;;;;;5026627;28;20473;-74
2022/04/30 07:24:09;;;;;;;25.43;15.67;;;8.30;99.90;;;;;;5023965;28;20511;-74
2022/04/30 07:26:35;;;;;;;26.83;16.00;;;8.30;99.90;;;;;;5024554;28;20523;-74
2022/04/30 07:29:03;;;;;;;23.60;14.07;;;8.30;99.90;;;;;;5016995;28;20450;-75
2022/04/30 07:31:30;;;;;;;24.43;14.60;;;8.30;99.90;;;;;;5025991;28;20990;-75
2022/04/30 07:33:57;;;;;;;27.40;15.77;;;8.20;99.90;;;;;;5024513;28;20510;-75
2022/04/30 07:36:26;;;;;;;25.00;14.53;;;8.20;99.90;;;;;;5026490;28;20457;-75
2022/04/30 07:38:53;;;;;;;25.87;15.27;;;8.10;99.90;;;;;;5026504;28;20457;-75
2022/04/30 07:41:19;;;;;;;24.17;15.37;;;8.10;99.90;;;;;;5025093;28;20527;-75
2022/04/30 07:43:46;;;;;;;26.10;15.63;;;8.10;99.90;;;;;;5020561;28;20446;-75
2022/04/30 07:46:14;;;;;;;22.40;15.20;;;8.00;99.90;;;;;;5024491;28;20577;-75
2022/04/30 07:48:41;;;;;;;25.30;14.80;;;8.00;99.90;;;;;;5018467;28;20457;-76
2022/04/30 07:51:14;;;;;;;21.07;13.90;;;8.10;99.90;;;;;;5028718;28;20521;-76
2022/04/30 07:53:41;;;;;;;24.07;14.70;;;8.00;99.90;;;;;;5026102;28;21025;-77
2022/04/30 07:56:07;;;;;;;23.07;15.20;;;8.00;99.90;;;;;;5013458;28;20970;-76
2022/04/30 07:58:34;;;;;;;27.33;15.20;;;7.90;99.90;;;;;;5017015;28;20458;-77
2022/04/30 08:01:01;;;;;;;25.30;15.70;;;7.80;99.90;;;;;;5018417;28;20474;-76
2022/04/30 08:03:29;;;;;;;23.40;14.13;;;7.80;99.90;;;;;;5027055;28;20457;-75
2022/04/30 08:05:55;;;;;;;33.33;16.80;;;7.80;99.90;;;;;;5021540;28;20450;-75
2022/04/30 08:08:22;;;;;;;28.63;16.43;;;7.80;99.90;;;;;;5024239;28;20794;-76
2022/04/30 08:10:48;;;;;;;29.60;15.87;;;7.70;99.90;;;;;;5023046;28;20466;-75
2022/04/30 08:13:15;;;;;;;30.60;16.00;;;7.70;99.90;;;;;;5019492;28;20485;-75
2022/04/30 08:15:43;;;;;;;23.90;15.83;;;7.80;99.90;;;;;;5030173;28;20454;-75
2022/04/30 08:18:10;;;;;;;25.27;15.90;;;7.80;99.90;;;;;;5037223;28;20453;-76
2022/04/30 08:20:38;;;;;;;33.93;17.53;;;7.80;99.90;;;;;;5027981;28;20477;-76
2022/04/30 08:23:06;;;;;;;23.90;14.83;;;7.80;99.90;;;;;;5041470;28;20536;-76
2022/04/30 08:25:34;;;;;;;25.30;16.00;;;7.80;99.90;;;;;;5038331;28;20460;-76
2022/04/30 08:28:01;;;;;;;23.73;15.60;;;7.90;99.90;;;;;;5034042;28;20449;-76
2022/04/30 08:30:28;;;;;;;24.70;16.00;;;7.90;99.90;;;;;;5027622;28;20474;-76
2022/04/30 08:32:55;;;;;;;25.70;16.20;;;8.00;99.90;;;;;;5034540;28;20481;-77
2022/04/30 08:35:21;;;;;;;27.00;16.00;;;8.10;99.90;;;;;;5027680;28;20450;-78
2022/04/30 08:37:49;;;;;;;28.03;15.97;;;8.10;99.90;;;;;;5023547;28;20520;-75
2022/04/30 08:40:17;;;;;;;25.90;14.80;;;8.20;99.90;;;;;;5028003;28;20477;-76
2022/04/30 08:42:43;;;;;;;26.77;15.80;;;8.20;99.90;;;;;;5024717;28;20461;-76
2022/04/30 08:45:11;;;;;;;29.40;14.97;;;8.30;99.90;;;;;;5026918;28;20450;-76
2022/04/30 08:47:39;;;;;;;23.97;16.03;;;8.30;99.90;;;;;;5026762;28;20453;-76
2022/04/30 08:50:08;;;;;;;25.90;15.80;;;8.40;99.90;;;;;;5034024;28;20503;-76
2022/04/30 08:52:35;;;;;;;25.50;15.90;;;8.40;99.90;;;;;;5035085;28;20534;-76
2022/04/30 08:55:03;;;;;;;21.93;14.67;;;8.40;99.90;;;;;;5028144;28;20453;-76
2022/04/30 08:57:30;;;;;;;23.87;15.30;;;8.40;99.90;;;;;;5029331;28;20528;-76
2022/04/30 08:59:58;;;;;;;26.37;15.73;;;8.40;99.90;;;;;;5028681;28;20473;-76
2022/04/30 09:02:25;;;;;;;22.27;15.17;;;8.50;99.90;;;;;;5027018;28;20511;-76
2022/04/30 09:04:52;;;;;;;27.40;15.80;;;8.50;99.90;;;;;;5020431;28;20512;-76
2022/04/30 09:07:21;;;;;;;25.23;15.37;;;8.50;99.90;;;;;;5028354;28;20453;-76
2022/04/30 09:09:54;;;;;;;24.90;15.30;;;8.60;99.90;;;;;;5036872;28;20516;-75
2022/04/30 09:12:23;;;;;;;25.83;15.00;;;8.60;99.90;;;;;;5032821;28;20517;-76
2022/04/30 09:14:50;;;;;;;27.23;15.83;;;8.60;99.90;;;;;;5022256;28;20802;-76
2022/04/30 09:17:18;;;;;;;25.40;14.40;;;8.60;99.90;;;;;;5021925;28;20454;-76
2022/04/30 09:19:50;;;;;;;24.90;15.70;;;8.50;99.90;;;;;;5029281;28;20458;-75
2022/04/30 09:22:17;;;;;;;20.83;14.43;;;8.50;99.90;;;;;;5014753;28;20470;-75
2022/04/30 09:24:49;;;;;;;31.77;15.83;;;8.50;99.90;;;;;;5025903;28;20471;-75
2022/04/30 09:27:16;;;;;;;24.57;14.80;;;8.50;99.90;;;;;;5029619;28;20496;-75
2022/04/30 09:29:44;;;;;;;26.77;14.17;;;8.50;99.90;;;;;;5036400;28;20515;-75
2022/04/30 09:32:17;;;;;;;22.17;14.17;;;8.50;99.90;;;;;;5033080;28;20445;-76
2022/04/30 09:37:46;;;;;;;29.40;15.70;;;8.60;99.90;;;;;;5045878;28;20816;-75
2022/04/30 09:40:25;;;;;;;23.17;13.87;;;8.60;99.90;;;;;;5053200;28;20474;-76
2022/04/30 09:42:52;;;;;;;30.17;15.43;;;8.60;99.90;;;;;;5042657;28;20442;-77
2022/04/30 09:45:29;;;;;;;24.47;14.30;;;8.60;99.90;;;;;;5021595;28;20515;-76
2022/04/30 09:47:57;;;;;;;23.90;15.63;;;8.70;99.90;;;;;;5020414;28;20533;-75
2022/04/30 09:55:55;;;;;;;22.87;15.30;;;8.90;99.90;;;;;;5022187;28;20444;-77
2022/04/30 09:58:24;;;;;;;23.43;16.00;;;8.90;99.90;;;;;;5025683;28;20457;-77
2022/04/30 10:00:54;;;;;;;24.70;15.40;;;8.90;99.90;;;;;;5023442;28;20559;-78
2022/04/30 10:03:26;;;;;;;30.87;16.20;;;8.90;99.90;;;;;;5028097;28;20460;-77
2022/04/30 10:05:58;;;;;;;29.33;15.60;;;8.90;99.90;;;;;;5030171;28;20450;-78
2022/04/30 10:08:27;;;;;;;26.37;16.10;;;8.90;99.90;;;;;;5032752;28;20457;-78
2022/04/30 10:11:02;;;;;;;39.93;16.50;;;8.90;99.90;;;;;;5031945;28;20466;-79
2022/04/30 10:13:37;;;;;;;28.07;16.07;;;8.90;99.90;;;;;;5030446;28;20512;-78
2022/04/30 10:16:12;;;;;;;31.50;16.60;;;9.00;99.90;;;;;;5028784;28;20458;-78
2022/04/30 10:18:42;;;;;;;29.33;16.43;;;8.90;99.90;;;;;;5020106;28;20589;-78
2022/04/30 10:21:17;;;;;;;30.33;15.60;;;8.90;99.90;;;;;;5036417;28;20468;-79
2022/04/30 10:23:44;;;;;;;26.23;16.23;;;8.90;99.90;;;;;;5022031;28;20449;-77
2022/04/30 10:26:11;;;;;;;23.97;15.97;;;8.90;99.90;;;;;;5019931;28;21182;-79
2022/04/30 10:28:38;;;;;;;24.77;14.37;;;8.90;99.90;;;;;;5022043;28;20454;-79
2022/04/30 10:31:09;;;;;;;24.33;15.77;;;8.80;99.90;;;;;;5021665;28;20469;-79
2022/04/30 10:33:46;;;;;;;27.43;15.53;;;8.80;99.90;;;;;;5033961;28;20548;-78
2022/04/30 10:36:13;;;;;;;25.40;15.60;;;8.90;99.90;;;;;;5029285;28;20499;-78
2022/04/30 10:38:42;;;;;;;24.30;16.80;;;8.90;99.90;;;;;;5021149;28;20516;-78
2022/04/30 10:41:10;;;;;;;25.63;16.33;;;9.00;99.90;;;;;;5027360;28;20572;-77
2022/04/30 10:43:38;;;;;;;26.35;16.05;;;9.00;99.90;;;;;;5021432;28;20451;-77
2022/04/30 10:46:19;;;;;;;27.27;18.17;;;9.00;99.90;;;;;;5024195;28;20255;-78
2022/04/30 10:48:45;;;;;;;26.53;15.90;;;9.00;99.90;;;;;;5020662;28;20445;-78
2022/04/30 10:51:15;;;;;;;24.57;16.73;;;9.00;99.90;;;;;;5018782;28;20469;-78
2022/04/30 10:53:43;;;;;;;27.23;15.97;;;8.90;99.90;;;;;;5018698;28;20485;-77
2022/04/30 10:56:11;;;;;;;24.93;16.07;;;9.00;99.90;;;;;;5025246;28;20450;-78
2022/04/30 10:58:39;;;;;;;27.70;17.57;;;9.00;99.90;;;;;;5019908;28;20462;-77
2022/04/30 11:01:14;;;;;;;26.87;16.70;;;8.80;99.90;;;;;;5027297;28;20473;-78
2022/04/30 11:03:42;;;;;;;32.87;18.63;;;8.90;99.90;;;;;;5021778;28;20500;-78
2022/04/30 11:06:11;;;;;;;28.63;17.07;;;8.90;99.90;;;;;;5022388;28;20452;-79
2022/04/30 11:08:38;;;;;;;43.40;24.67;;;8.90;99.90;;;;;;5025326;28;20975;-78
2022/04/30 11:11:04;;;;;;;35.83;22.50;;;8.90;99.90;;;;;;5031097;28;20482;-78
2022/04/30 11:13:31;;;;;;;34.40;20.30;;;9.00;99.90;;;;;;5030461;28;20511;-78
2022/04/30 11:16:00;;;;;;;37.43;22.20;;;9.00;99.90;;;;;;5032511;28;20457;-77
2022/04/30 11:18:28;;;;;;;52.17;28.20;;;9.10;99.90;;;;;;5049377;28;20952;-77
2022/04/30 11:20:59;;;;;;;48.50;25.07;;;9.10;99.90;;;;;;5050279;28;20526;-76
2022/04/30 11:23:25;;;;;;;42.33;25.20;;;9.10;99.90;;;;;;5047113;28;20460;-77
2022/04/30 11:25:53;;;;;;;36.87;23.20;;;9.10;99.90;;;;;;5026940;28;21038;-77
2022/04/30 11:28:20;;;;;;;49.23;28.30;;;9.10;99.90;;;;;;5021949;28;20462;-78
2022/04/30 11:30:46;;;;;;;31.67;20.10;;;9.10;99.90;;;;;;5023103;28;20498;-77
2022/04/30 11:33:13;;;;;;;26.73;17.60;;;9.20;99.90;;;;;;5022128;28;20488;-77
2022/04/30 11:35:41;;;;;;;30.17;17.50;;;9.30;99.90;;;;;;5016619;28;20508;-77
2022/04/30 11:38:10;;;;;;;34.47;18.93;;;9.30;99.90;;;;;;5022696;28;20458;-77
2022/04/30 11:40:42;;;;;;;30.33;18.83;;;9.40;99.90;;;;;;5016398;28;20509;-77
2022/04/30 11:43:08;;;;;;;22.70;15.73;;;9.40;99.90;;;;;;5018599;28;20460;-78
2022/04/30 11:45:35;;;;;;;38.97;19.10;;;9.50;99.90;;;;;;5014865;28;20504;-75
2022/04/30 11:48:03;;;;;;;31.63;21.20;;;9.60;99.90;;;;;;5022894;28;20456;-76
2022/04/30 11:50:30;;;;;;;33.60;17.87;;;9.60;99.90;;;;;;5021853;28;20470;-76
2022/04/30 11:52:59;;;;;;;27.60;16.97;;;9.80;99.90;;;;;;5017210;28;20453;-77
2022/04/30 11:55:26;;;;;;;27.07;17.60;;;9.80;99.90;;;;;;5019335;28;20458;-76
2022/04/30 11:57:53;;;;;;;42.23;22.67;;;9.80;99.90;;;;;;5021571;28;20457;-77
2022/04/30 12:00:20;;;;;;;56.07;32.63;;;9.90;99.90;;;;;;5023513;28;20469;-77
2022/04/30 12:02:48;;;;;;;29.50;19.03;;;10.00;99.90;;;;;;5023652;28;20468;-77
2022/04/30 12:05:16;;;;;;;32.80;19.97;;;10.00;99.90;;;;;;5028258;28;20808;-76
2022/04/30 12:07:43;;;;;;;40.37;20.33;;;10.00;99.90;;;;;;5036575;28;20874;-76
2022/04/30 12:10:19;;;;;;;35.47;22.40;;;10.10;99.90;;;;;;5023877;28;20473;-76
2022/04/30 12:12:46;;;;;;;30.70;19.20;;;10.20;99.90;;;;;;5033738;28;20465;-77
2022/04/30 12:15:21;;;;;;;28.20;16.63;;;10.30;99.90;;;;;;5031878;28;20497;-78
2022/04/30 12:24:40;;;;;;;23.57;16.10;;;10.40;99.90;;;;;;5024578;28;20949;-78
2022/04/30 12:26:13;;;;;;;28.67;15.53;;;10.60;99.90;;;;;;5037656;28;21047;-76
2022/04/30 12:28:48;;;;;;;25.90;15.10;;;10.70;99.90;;;;;;5024315;28;20457;-78
2022/04/30 12:31:15;;;;;;;24.53;15.30;;;10.70;99.90;;;;;;5027671;28;20468;-78
2022/04/30 12:33:48;;;;;;;27.70;16.23;;;10.70;99.90;;;;;;5033658;28;20992;-78
2022/04/30 12:36:15;;;;;;;24.03;15.07;;;10.70;99.90;;;;;;5033163;28;20450;-78
2022/04/30 12:38:53;;;;;;;24.03;16.37;;;10.80;99.90;;;;;;5027870;28;20798;-78
2022/04/30 12:41:22;;;;;;;26.47;15.57;;;10.80;99.90;;;;;;5027607;28;20470;-80
2022/04/30 12:43:49;;;;;;;22.07;14.50;;;10.80;99.90;;;;;;5018825;28;21048;-77
2022/04/30 12:46:20;;;;;;;22.87;14.70;;;10.70;99.90;;;;;;5019269;28;20973;-78
2022/04/30 12:48:47;;;;;;;19.90;14.37;;;10.70;99.90;;;;;;5028632;28;20946;-77
2022/04/30 12:51:14;;;;;;;22.17;15.17;;;10.80;99.90;;;;;;5017039;28;20481;-78
2022/04/30 12:53:41;;;;;;;23.63;15.03;;;10.80;99.90;;;;;;5026523;28;20542;-78
2022/04/30 12:56:07;;;;;;;24.37;15.03;;;10.90;99.90;;;;;;5020016;28;20445;-78
2022/04/30 12:58:36;;;;;;;24.57;15.17;;;10.90;99.90;;;;;;5021474;28;20516;-77
2022/04/30 13:01:02;;;;;;;23.77;16.17;;;10.90;99.90;;;;;;5023951;28;21068;-77
2022/04/30 13:03:31;;;;;;;19.80;14.20;;;11.00;99.90;;;;;;5025885;28;20876;-78
2022/04/30 13:05:57;;;;;;;24.70;15.37;;;11.00;99.90;;;;;;5021454;28;20517;-78
2022/04/30 13:13:30;;;;;;;25.70;15.30;;;11.00;99.90;;;;;;5035044;28;20453;-76
2022/04/30 13:13:56;;;;;;;25.00;15.70;;;10.90;99.90;;;;;;5022115;28;20974;-78
2022/04/30 13:16:22;;;;;;;24.53;14.07;;;11.00;99.90;;;;;;5019623;28;20450;-78
2022/04/30 13:18:49;;;;;;;25.90;14.77;;;11.10;99.90;;;;;;5020519;28;20522;-76
2022/04/30 13:21:16;;;;;;;22.50;14.97;;;11.10;99.90;;;;;;5015739;28;20466;-76
2022/04/30 13:23:42;;;;;;;27.60;15.83;;;11.10;99.90;;;;;;5020817;28;20519;-77